Time;durP1;ratioP1;P1;durP2;ratioP2;P2;SDS_P1;SDS_P2;PMS_P1;PMS_P2;Temp;Humidity;BMP_temperature;BMP_pressure;BME280_temperature;BME280_humidity;BME280_pressure;Samples;Min_cycle;Max_cycle;Signal;HPM_P1;HPM_P2
2022/01/05 00:00:42;;;;;;;6.15;3.90;;;7.20;90.40;;;;;;1872805;75;21535;-47
2022/01/05 00:03:12;;;;;;;5.47;3.85;;;7.20;90.40;;;;;;1872757;77;21053;-44
2022/01/05 00:05:41;;;;;;;6.70;4.42;;;7.20;90.40;;;;;;1872842;76;21120;-45
2022/01/05 00:08:12;;;;;;;6.28;4.35;;;7.20;90.40;;;;;;1872875;77;21095;-44
2022/01/05 00:10:42;;;;;;;6.72;4.47;;;7.20;90.40;;;;;;1872858;76;21099;-45
2022/01/05 00:13:12;;;;;;;5.60;4.30;;;7.10;90.30;;;;;;1872733;75;21088;-44
2022/01/05 00:15:41;;;;;;;7.92;5.40;;;7.00;90.10;;;;;;1872827;75;21095;-44
2022/01/05 00:18:10;;;;;;;8.28;5.80;;;7.00;90.20;;;;;;1872730;77;21020;-44
2022/01/05 00:20:52;;;;;;;8.03;5.95;;;6.90;90.40;;;;;;1872714;76;21033;-44
2022/01/05 00:23:21;;;;;;;6.95;5.17;;;6.90;90.50;;;;;;1849003;77;21083;-44
2022/01/05 00:25:51;;;;;;;6.83;5.25;;;6.90;90.60;;;;;;1872884;76;21029;-44
2022/01/05 00:28:20;;;;;;;7.80;5.00;;;6.90;90.50;;;;;;1872901;76;21010;-44
2022/01/05 00:30:50;;;;;;;8.18;5.40;;;6.90;90.60;;;;;;1872883;75;21091;-44
2022/01/05 00:33:19;;;;;;;8.20;5.15;;;7.00;90.60;;;;;;1873005;75;21050;-44
2022/01/05 00:35:48;;;;;;;7.67;4.60;;;6.90;90.50;;;;;;1872961;77;21033;-44
2022/01/05 00:38:18;;;;;;;8.88;5.40;;;6.90;90.50;;;;;;1872826;75;21065;-44
2022/01/05 00:40:47;;;;;;;6.83;4.60;;;6.90;90.50;;;;;;1872959;75;21104;-44
2022/01/05 00:43:17;;;;;;;8.35;5.15;;;6.90;90.50;;;;;;1872865;77;21103;-45
2022/01/05 00:45:46;;;;;;;8.65;5.87;;;6.80;90.40;;;;;;1872807;75;21108;-44
2022/01/05 00:48:15;;;;;;;7.45;5.67;;;6.70;90.50;;;;;;1872998;76;21033;-44
2022/01/05 00:50:45;;;;;;;6.28;4.83;;;6.70;90.60;;;;;;1872919;76;21024;-44
2022/01/05 00:53:14;;;;;;;7.72;5.62;;;6.70;90.50;;;;;;1872962;77;21038;-44
2022/01/05 00:55:43;;;;;;;7.12;5.40;;;6.70;90.60;;;;;;1872959;75;21009;-44
2022/01/05 00:58:13;;;;;;;5.60;4.83;;;6.60;90.60;;;;;;1872990;75;21087;-45
2022/01/05 01:00:42;;;;;;;8.73;5.92;;;6.70;90.60;;;;;;1872832;76;21006;-44
2022/01/05 01:03:11;;;;;;;7.10;5.53;;;6.60;90.60;;;;;;1872809;75;21103;-44
2022/01/05 01:05:41;;;;;;;6.70;5.40;;;6.60;90.40;;;;;;1872940;76;21579;-46
2022/01/05 01:08:10;;;;;;;8.25;5.22;;;6.60;90.40;;;;;;1872856;76;21029;-45
2022/01/05 01:10:40;;;;;;;7.15;5.28;;;6.50;90.40;;;;;;1872833;77;21103;-44
2022/01/05 01:13:09;;;;;;;6.62;4.72;;;6.50;90.40;;;;;;1872984;75;21029;-46
2022/01/05 01:15:39;;;;;;;7.00;4.90;;;6.40;90.50;;;;;;1872937;75;21030;-44
2022/01/05 01:18:08;;;;;;;7.20;4.70;;;6.40;90.60;;;;;;1872967;76;21077;-45
2022/01/05 01:20:38;;;;;;;7.92;5.70;;;6.40;90.60;;;;;;1872912;76;21084;-44
2022/01/05 01:23:07;;;;;;;9.55;6.03;;;6.40;90.60;;;;;;1872959;75;21068;-44
2022/01/05 01:25:36;;;;;;;8.48;4.80;;;6.40;90.60;;;;;;1872836;76;21050;-44
2022/01/05 01:28:06;;;;;;;6.90;5.05;;;6.40;90.70;;;;;;1872834;75;21002;-44
2022/01/05 01:30:35;;;;;;;7.87;4.67;;;6.40;90.70;;;;;;1872858;77;21038;-44
2022/01/05 01:33:04;;;;;;;9.85;4.67;;;6.40;90.70;;;;;;1872972;76;21080;-44
2022/01/05 01:35:34;;;;;;;8.25;5.28;;;6.50;90.70;;;;;;1872838;76;21447;-44
2022/01/05 01:38:03;;;;;;;10.15;4.70;;;6.50;90.70;;;;;;1872938;77;21062;-44
2022/01/05 01:40:32;;;;;;;7.12;5.00;;;6.50;90.20;;;;;;1872920;76;21014;-44
2022/01/05 01:43:02;;;;;;;7.15;4.97;;;6.40;90.00;;;;;;1872851;77;21115;-45
2022/01/05 01:45:31;;;;;;;8.33;5.30;;;6.30;90.20;;;;;;1872836;75;21147;-44
2022/01/05 01:48:01;;;;;;;7.05;5.40;;;6.20;90.30;;;;;;1872865;77;21041;-45
2022/01/05 01:50:30;;;;;;;7.83;4.78;;;6.10;90.40;;;;;;1872922;75;21104;-44
2022/01/05 01:53:00;;;;;;;10.32;5.42;;;6.10;90.50;;;;;;1873130;76;21448;-45
2022/01/05 01:55:29;;;;;;;5.78;4.97;;;6.00;90.50;;;;;;1872808;75;21033;-45
2022/01/05 01:57:59;;;;;;;8.78;5.58;;;6.00;90.60;;;;;;1872855;77;21034;-45
2022/01/05 02:00:33;;;;;;;7.45;5.53;;;6.00;90.60;;;;;;1872810;76;21001;-44
2022/01/05 02:02:59;;;;;;;7.40;4.78;;;6.00;90.70;;;;;;1872496;77;21049;-45
2022/01/05 02:05:29;;;;;;;8.55;5.70;;;6.00;90.80;;;;;;1872869;75;21112;-44
2022/01/05 02:07:59;;;;;;;7.37;5.00;;;6.00;90.80;;;;;;1872945;75;21459;-44
2022/01/05 02:10:29;;;;;;;7.80;5.17;;;6.10;90.80;;;;;;1872920;76;21554;-45
2022/01/05 02:12:58;;;;;;;5.42;4.45;;;6.10;90.80;;;;;;1872950;75;21127;-45
2022/01/05 02:15:28;;;;;;;8.78;4.55;;;6.10;90.50;;;;;;1872808;75;21143;-44
2022/01/05 02:18:10;;;;;;;6.45;4.62;;;6.10;90.50;;;;;;1872867;77;21135;-44
2022/01/05 02:20:28;;;;;;;8.00;4.70;;;6.00;90.30;;;;;;1870827;75;21041;-44
2022/01/05 02:22:58;;;;;;;7.55;4.80;;;5.90;89.90;;;;;;1872804;75;21092;-45
2022/01/05 02:25:28;;;;;;;7.10;4.40;;;5.80;90.10;;;;;;1872950;77;21033;-45
2022/01/05 02:27:57;;;;;;;6.55;4.60;;;5.70;90.30;;;;;;1872941;75;21116;-44
2022/01/05 02:30:29;;;;;;;7.25;4.28;;;5.60;90.20;;;;;;1872834;75;21033;-44
2022/01/05 02:33:00;;;;;;;8.48;5.33;;;5.50;90.10;;;;;;1873031;76;21037;-44
2022/01/05 02:35:29;;;;;;;6.53;4.05;;;5.50;90.40;;;;;;1873092;76;21076;-45
2022/01/05 02:37:58;;;;;;;6.72;4.20;;;5.40;90.40;;;;;;1872920;76;21085;-44
2022/01/05 02:40:28;;;;;;;6.22;4.70;;;5.40;90.50;;;;;;1872882;75;21092;-44
2022/01/05 02:42:58;;;;;;;7.12;4.70;;;5.40;90.70;;;;;;1872796;75;21575;-44
2022/01/05 02:45:27;;;;;;;8.63;5.67;;;5.40;90.70;;;;;;1872890;75;21074;-45
2022/01/05 02:47:57;;;;;;;5.53;4.50;;;5.40;90.70;;;;;;1872880;76;21493;-44
2022/01/05 02:50:26;;;;;;;6.40;5.50;;;5.50;90.50;;;;;;1872939;76;21042;-44
2022/01/05 02:52:55;;;;;;;8.03;5.58;;;5.40;90.50;;;;;;1873021;76;21441;-44
2022/01/05 02:55:24;;;;;;;8.65;5.75;;;5.40;90.50;;;;;;1872850;75;21095;-44
2022/01/05 02:57:54;;;;;;;8.28;5.55;;;5.40;90.50;;;;;;1872896;75;21033;-44
2022/01/05 03:00:23;;;;;;;8.63;5.45;;;5.40;90.60;;;;;;1872884;77;21034;-44
2022/01/05 03:02:52;;;;;;;7.70;4.62;;;5.50;90.60;;;;;;1872788;77;21013;-44
2022/01/05 03:05:21;;;;;;;5.53;4.17;;;5.50;90.70;;;;;;1872813;76;21025;-44
2022/01/05 03:07:51;;;;;;;5.55;3.98;;;5.50;90.70;;;;;;1872783;76;21092;-44
2022/01/05 03:10:20;;;;;;;5.35;4.25;;;5.50;90.60;;;;;;1872754;76;21029;-45
2022/01/05 03:12:49;;;;;;;6.78;4.10;;;5.60;90.60;;;;;;1872793;76;21029;-44
2022/01/05 03:15:19;;;;;;;5.80;3.90;;;5.60;90.60;;;;;;1872869;76;21041;-45
2022/01/05 03:17:48;;;;;;;7.42;4.50;;;5.60;90.60;;;;;;1872776;76;21077;-44
2022/01/05 03:20:17;;;;;;;6.20;4.05;;;5.60;90.50;;;;;;1872842;77;21034;-44
2022/01/05 03:22:47;;;;;;;5.55;4.47;;;5.60;90.60;;;;;;1872818;75;21041;-44
2022/01/05 03:25:16;;;;;;;6.00;4.05;;;5.60;90.60;;;;;;1872781;76;21034;-44
2022/01/05 03:27:48;;;;;;;6.80;4.10;;;5.60;90.70;;;;;;1872908;77;21107;-44
2022/01/05 03:30:20;;;;;;;6.62;4.20;;;5.70;90.70;;;;;;1872869;76;21033;-44
2022/01/05 03:35:40;;;;;;;5.47;4.10;;;5.80;90.80;;;;;;1873018;75;21025;-44
2022/01/05 03:38:09;;;;;;;5.58;3.62;;;5.90;90.80;;;;;;1872780;76;21033;-44
2022/01/05 03:40:38;;;;;;;5.85;3.98;;;5.90;90.70;;;;;;1872768;75;21081;-44
2022/01/05 03:43:09;;;;;;;4.95;3.60;;;5.90;90.80;;;;;;1872863;75;21313;-45
2022/01/05 03:45:39;;;;;;;5.40;3.58;;;5.90;90.80;;;;;;1874163;76;21040;-45
2022/01/05 03:48:11;;;;;;;5.80;3.15;;;6.00;90.80;;;;;;1891625;76;21091;-44
2022/01/05 03:50:41;;;;;;;3.35;2.27;;;6.10;91.00;;;;;;1891566;76;21685;-45
2022/01/05 03:53:11;;;;;;;7.75;2.40;;;6.10;91.10;;;;;;1891478;76;21090;-45
2022/01/05 03:55:42;;;;;;;3.05;2.12;;;6.30;91.10;;;;;;1891435;76;21028;-44
2022/01/05 03:58:11;;;;;;;4.25;2.33;;;6.30;91.00;;;;;;1891628;76;21082;-44
2022/01/05 04:00:43;;;;;;;3.15;2.00;;;6.40;91.10;;;;;;1891517;76;21008;-46
2022/01/05 04:03:13;;;;;;;5.28;2.40;;;6.50;91.00;;;;;;1891516;76;21043;-45
2022/01/05 04:05:42;;;;;;;2.30;2.10;;;6.70;91.00;;;;;;1891687;76;21032;-45
2022/01/05 04:08:12;;;;;;;3.50;2.52;;;6.70;90.90;;;;;;1891522;76;21032;-45
2022/01/05 04:10:41;;;;;;;3.80;2.15;;;6.80;90.80;;;;;;1891549;76;21032;-44
2022/01/05 04:13:11;;;;;;;2.37;1.80;;;6.80;90.70;;;;;;1891540;76;21035;-46
2022/01/05 04:15:40;;;;;;;3.45;2.35;;;6.90;90.70;;;;;;1891487;76;21032;-44
2022/01/05 04:18:09;;;;;;;2.77;2.08;;;7.00;90.90;;;;;;1891619;76;21185;-45
2022/01/05 04:20:39;;;;;;;6.92;2.72;;;7.00;90.60;;;;;;1891568;75;21056;-45
2022/01/05 04:23:09;;;;;;;3.10;2.77;;;7.10;90.60;;;;;;1891501;76;21075;-44
2022/01/05 04:25:38;;;;;;;3.85;2.30;;;7.10;90.50;;;;;;1891453;75;21137;-44
2022/01/05 04:28:07;;;;;;;2.22;1.77;;;7.10;90.40;;;;;;1891601;76;21027;-45
2022/01/05 04:30:36;;;;;;;3.10;1.90;;;7.20;90.40;;;;;;1891562;76;21103;-45
2022/01/05 04:33:05;;;;;;;3.33;1.98;;;7.30;90.30;;;;;;1891493;76;21427;-44
2022/01/05 04:35:35;;;;;;;4.65;3.47;;;7.30;90.40;;;;;;1891417;75;21008;-44
2022/01/05 04:38:04;;;;;;;9.53;7.60;;;7.30;90.30;;;;;;1891521;76;21040;-45
2022/01/05 04:40:33;;;;;;;3.02;2.72;;;7.30;90.30;;;;;;1891458;76;21028;-44
2022/01/05 04:43:03;;;;;;;3.87;1.60;;;7.30;90.20;;;;;;1891553;76;21040;-44
2022/01/05 04:45:32;;;;;;;4.78;2.20;;;7.30;90.10;;;;;;1891473;76;21086;-45
2022/01/05 04:48:03;;;;;;;2.95;2.30;;;7.40;90.20;;;;;;1875969;76;21033;-44
2022/01/05 04:50:32;;;;;;;2.10;1.90;;;7.40;90.10;;;;;;1872797;76;21099;-44
2022/01/05 04:53:02;;;;;;;2.17;1.85;;;7.40;90.00;;;;;;1872774;76;21058;-45
2022/01/05 04:55:31;;;;;;;2.47;2.05;;;7.40;90.00;;;;;;1872800;77;21053;-44
2022/01/05 04:58:01;;;;;;;4.05;2.33;;;7.40;90.00;;;;;;1872877;75;21084;-44
2022/01/05 05:00:30;;;;;;;3.15;2.40;;;7.50;90.10;;;;;;1872909;76;21124;-44
2022/01/05 05:02:59;;;;;;;5.65;2.87;;;7.50;90.00;;;;;;1872759;77;21045;-45
2022/01/05 05:05:28;;;;;;;7.62;3.65;;;7.50;90.00;;;;;;1872831;77;21159;-44
2022/01/05 05:07:58;;;;;;;5.30;2.40;;;7.50;90.00;;;;;;1872938;75;21006;-44
2022/01/05 05:10:27;;;;;;;7.08;4.50;;;7.50;89.70;;;;;;1872802;76;21037;-44
2022/01/05 05:12:57;;;;;;;6.35;2.70;;;7.50;89.60;;;;;;1872916;76;21005;-44
2022/01/05 05:15:27;;;;;;;9.03;5.17;;;7.60;89.50;;;;;;1872742;75;21033;-45
2022/01/05 05:17:56;;;;;;;19.50;12.05;;;7.60;89.40;;;;;;1872756;77;21033;-44
2022/01/05 05:20:25;;;;;;;6.28;4.08;;;7.60;89.40;;;;;;1872837;76;21534;-45
2022/01/05 05:22:54;;;;;;;2.83;2.17;;;7.60;89.90;;;;;;1872788;75;21006;-44
2022/01/05 05:25:24;;;;;;;4.03;1.90;;;7.70;89.20;;;;;;1872773;75;21061;-44
2022/01/05 05:27:53;;;;;;;6.67;4.58;;;7.70;89.00;;;;;;1872694;77;21010;-44
2022/01/05 05:30:23;;;;;;;5.72;3.12;;;7.70;89.20;;;;;;1872706;75;21088;-44
2022/01/05 05:32:58;;;;;;;4.17;2.27;;;7.70;89.00;;;;;;1872775;75;21001;-45
2022/01/05 05:35:26;;;;;;;3.67;2.20;;;7.70;89.00;;;;;;1872381;77;21103;-45
2022/01/05 05:37:55;;;;;;;4.40;1.92;;;7.70;88.90;;;;;;1872730;75;21091;-46
2022/01/05 05:40:24;;;;;;;3.45;2.08;;;7.80;89.00;;;;;;1872683;76;21033;-45
2022/01/05 05:42:54;;;;;;;2.50;2.15;;;7.80;89.00;;;;;;1872722;75;21025;-45
2022/01/05 05:45:23;;;;;;;5.83;2.52;;;7.80;88.90;;;;;;1872809;75;21084;-46
2022/01/05 05:47:52;;;;;;;3.75;1.92;;;7.80;88.90;;;;;;1872705;75;21064;-45
2022/01/05 05:50:21;;;;;;;3.80;2.58;;;7.90;88.80;;;;;;1872877;76;21041;-44
2022/01/05 05:52:51;;;;;;;4.58;2.80;;;7.80;88.90;;;;;;1872744;76;21073;-44
2022/01/05 05:55:20;;;;;;;4.42;1.90;;;7.80;88.90;;;;;;1872751;77;21056;-44
2022/01/05 05:57:50;;;;;;;4.00;2.65;;;7.80;88.90;;;;;;1872811;75;21057;-45
2022/01/05 06:00:19;;;;;;;2.50;1.90;;;7.80;88.90;;;;;;1872826;76;21077;-44
2022/01/05 06:02:49;;;;;;;7.62;5.22;;;7.80;88.90;;;;;;1872640;75;21061;-45
2022/01/05 06:05:18;;;;;;;3.08;2.55;;;7.80;88.90;;;;;;1872690;75;21010;-44
2022/01/05 06:07:47;;;;;;;3.05;2.20;;;7.80;88.40;;;;;;1872716;77;21104;-44
2022/01/05 06:10:16;;;;;;;2.62;1.90;;;7.90;88.10;;;;;;1872742;76;21036;-45
2022/01/05 06:12:46;;;;;;;4.20;2.22;;;7.90;88.20;;;;;;1872760;77;21005;-45
2022/01/05 06:15:15;;;;;;;1.95;1.75;;;7.90;88.50;;;;;;1872724;76;21033;-45
2022/01/05 06:17:44;;;;;;;3.77;2.00;;;8.00;87.70;;;;;;1872814;76;21041;-45
2022/01/05 06:20:14;;;;;;;2.75;2.00;;;8.00;87.80;;;;;;1872668;75;21170;-45
2022/01/05 06:22:43;;;;;;;3.10;1.52;;;8.10;87.70;;;;;;1872583;77;21103;-45
2022/01/05 06:25:13;;;;;;;3.05;1.80;;;8.10;87.50;;;;;;1872795;75;21080;-44
2022/01/05 06:27:44;;;;;;;4.17;2.25;;;8.10;86.80;;;;;;1872872;75;21057;-44
2022/01/05 06:30:14;;;;;;;1.85;1.55;;;8.20;87.00;;;;;;1872636;76;21053;-46
2022/01/05 06:32:45;;;;;;;2.52;1.98;;;8.20;87.00;;;;;;1872832;75;21119;-46
2022/01/05 06:35:16;;;;;;;3.35;1.82;;;8.20;86.80;;;;;;1872809;75;21053;-45
2022/01/05 06:37:45;;;;;;;2.50;1.80;;;8.20;86.90;;;;;;1872774;75;21132;-45
2022/01/05 06:40:14;;;;;;;3.37;1.98;;;8.30;86.30;;;;;;1872776;75;21096;-45
2022/01/05 06:42:43;;;;;;;3.22;2.42;;;8.30;87.10;;;;;;1872696;75;21034;-45
2022/01/05 06:45:13;;;;;;;2.47;1.72;;;8.30;86.80;;;;;;1872729;76;21026;-45
2022/01/05 06:47:43;;;;;;;3.45;2.27;;;8.40;86.30;;;;;;1872588;75;21206;-45
2022/01/05 06:50:13;;;;;;;2.58;1.87;;;8.40;86.60;;;;;;1872791;76;21037;-45
2022/01/05 06:52:42;;;;;;;3.00;1.92;;;8.50;85.80;;;;;;1872707;77;21092;-46
2022/01/05 06:55:12;;;;;;;1.95;1.75;;;8.50;86.00;;;;;;1872649;76;21100;-45
2022/01/05 06:57:41;;;;;;;3.42;1.80;;;8.50;86.40;;;;;;1872775;77;21050;-47
2022/01/05 07:00:12;;;;;;;2.60;1.87;;;8.60;85.50;;;;;;1872693;77;21091;-45
2022/01/05 07:02:42;;;;;;;4.70;1.92;;;8.60;86.00;;;;;;1872816;76;21057;-46
2022/01/05 07:05:12;;;;;;;2.45;1.92;;;8.70;85.70;;;;;;1872796;75;21076;-45
2022/01/05 07:07:41;;;;;;;2.83;2.20;;;8.70;85.20;;;;;;1872670;75;21030;-44
2022/01/05 07:10:11;;;;;;;2.65;1.67;;;8.70;85.30;;;;;;1872717;77;21033;-44
2022/01/05 07:12:41;;;;;;;3.80;2.20;;;8.70;85.60;;;;;;1872776;75;21104;-46
2022/01/05 07:15:11;;;;;;;3.58;2.35;;;8.80;85.10;;;;;;1872685;75;21154;-47
2022/01/05 07:17:40;;;;;;;5.33;2.17;;;8.80;85.00;;;;;;1872740;75;21108;-45
2022/01/05 07:20:10;;;;;;;4.53;3.05;;;8.80;84.80;;;;;;1872546;75;21037;-45
2022/01/05 07:22:40;;;;;;;4.47;2.50;;;8.90;84.80;;;;;;1872555;77;21025;-44
2022/01/05 07:25:10;;;;;;;2.65;1.95;;;8.90;84.60;;;;;;1872732;76;21073;-44
2022/01/05 07:27:39;;;;;;;3.42;1.90;;;9.00;84.30;;;;;;1872831;77;21073;-43
2022/01/05 07:30:09;;;;;;;2.75;2.00;;;9.00;85.00;;;;;;1872623;75;21037;-44
2022/01/05 07:32:40;;;;;;;6.50;3.85;;;9.10;85.00;;;;;;1872902;75;21096;-46
2022/01/05 07:35:10;;;;;;;6.40;2.90;;;9.10;84.50;;;;;;1872812;77;21053;-45
2022/01/05 07:37:39;;;;;;;3.98;2.33;;;9.10;84.70;;;;;;1872711;75;21136;-45
2022/01/05 07:40:09;;;;;;;4.60;1.77;;;9.10;84.50;;;;;;1872750;75;21069;-46
2022/01/05 07:42:39;;;;;;;3.42;2.17;;;9.10;84.10;;;;;;1872681;77;21037;-45
2022/01/05 07:45:10;;;;;;;6.87;2.12;;;9.20;83.60;;;;;;1872803;75;21068;-45
2022/01/05 07:47:39;;;;;;;3.72;2.12;;;9.30;83.70;;;;;;1872943;75;21104;-47
2022/01/05 07:50:14;;;;;;;5.37;2.27;;;9.30;83.00;;;;;;1872810;75;21105;-48
2022/01/05 07:52:42;;;;;;;6.12;1.90;;;9.30;83.30;;;;;;1872481;76;21088;-48
2022/01/05 07:55:11;;;;;;;3.80;1.90;;;9.40;83.30;;;;;;1872764;76;21041;-47
2022/01/05 07:57:41;;;;;;;3.95;2.25;;;9.40;81.80;;;;;;1872682;75;21034;-46
2022/01/05 08:00:11;;;;;;;3.58;2.27;;;9.40;82.60;;;;;;1872812;75;21037;-46
2022/01/05 08:02:40;;;;;;;3.22;1.87;;;9.40;82.50;;;;;;1872685;76;21038;-44
2022/01/05 08:05:09;;;;;;;7.35;2.10;;;9.50;82.30;;;;;;1872651;75;21119;-45
2022/01/05 08:07:39;;;;;;;2.98;2.27;;;9.50;82.50;;;;;;1872699;77;21277;-45
2022/01/05 08:10:09;;;;;;;2.17;1.75;;;9.50;82.00;;;;;;1872665;75;21088;-46
2022/01/05 08:12:40;;;;;;;4.95;2.55;;;9.50;81.70;;;;;;1872770;76;21045;-45
2022/01/05 08:15:10;;;;;;;2.92;2.00;;;9.50;81.80;;;;;;1872919;75;21045;-45
2022/01/05 08:17:40;;;;;;;3.15;1.80;;;9.60;81.90;;;;;;1872709;76;21077;-44
2022/01/05 08:20:15;;;;;;;5.55;2.35;;;9.60;82.00;;;;;;1872603;75;21061;-48
2022/01/05 08:22:45;;;;;;;5.42;3.08;;;9.60;82.00;;;;;;1872157;75;21115;-48
2022/01/05 08:25:17;;;;;;;4.53;1.75;;;9.70;82.30;;;;;;1872803;76;21099;-46
2022/01/05 08:27:46;;;;;;;2.35;1.85;;;9.70;81.80;;;;;;1872829;75;21009;-45
2022/01/05 08:30:18;;;;;;;3.05;1.20;;;9.70;81.40;;;;;;1872711;76;21001;-45
2022/01/05 08:32:49;;;;;;;3.85;1.85;;;9.80;81.00;;;;;;1872731;75;21051;-45
2022/01/05 08:35:19;;;;;;;5.25;2.25;;;9.80;81.30;;;;;;1872736;75;21033;-45
2022/01/05 08:37:49;;;;;;;4.75;2.52;;;9.80;81.30;;;;;;1872736;75;21091;-45
2022/01/05 08:40:24;;;;;;;5.87;2.42;;;9.80;81.10;;;;;;1872919;76;21115;-45
2022/01/05 08:42:54;;;;;;;3.72;1.17;;;9.90;81.60;;;;;;1872805;76;21096;-46
2022/01/05 08:45:24;;;;;;;4.08;1.47;;;9.90;80.90;;;;;;1872845;76;21049;-45
2022/01/05 08:47:55;;;;;;;4.47;2.15;;;9.90;80.90;;;;;;1872685;76;21009;-46
2022/01/05 08:50:30;;;;;;;4.83;1.90;;;10.00;80.50;;;;;;1872720;75;21137;-45
2022/01/05 08:53:00;;;;;;;3.10;1.85;;;10.00;80.90;;;;;;1872975;77;21523;-45
2022/01/05 08:55:32;;;;;;;2.30;1.77;;;10.00;80.60;;;;;;1872775;76;21064;-45
2022/01/05 08:58:02;;;;;;;1.60;1.15;;;10.10;80.00;;;;;;1872891;77;21029;-47
2022/01/05 09:00:32;;;;;;;3.72;1.40;;;10.10;79.60;;;;;;1872732;77;21108;-45
2022/01/05 09:03:02;;;;;;;3.05;1.60;;;10.10;78.40;;;;;;1872627;75;21010;-45
2022/01/05 09:05:31;;;;;;;4.65;2.17;;;10.10;78.40;;;;;;1872913;76;21029;-45
2022/01/05 09:08:01;;;;;;;2.58;1.62;;;10.10;78.40;;;;;;1872778;75;21038;-44
2022/01/05 09:10:30;;;;;;;6.60;2.30;;;10.20;78.20;;;;;;1872720;75;21080;-46
2022/01/05 09:13:00;;;;;;;2.42;1.82;;;10.20;78.50;;;;;;1872768;75;21111;-45
2022/01/05 09:15:30;;;;;;;1.55;1.10;;;10.20;79.00;;;;;;1872828;77;21487;-45
2022/01/05 09:17:59;;;;;;;3.67;2.15;;;10.20;78.10;;;;;;1872722;76;21056;-45
2022/01/05 09:20:29;;;;;;;7.50;2.37;;;10.20;77.80;;;;;;1872748;75;21104;-45
2022/01/05 09:22:58;;;;;;;6.00;2.40;;;10.20;78.10;;;;;;1872722;77;21127;-45
2022/01/05 09:25:28;;;;;;;3.75;1.92;;;10.30;77.70;;;;;;1872752;75;21188;-45
2022/01/05 09:27:57;;;;;;;8.73;2.50;;;10.30;78.10;;;;;;1872775;75;21099;-46
2022/01/05 09:30:27;;;;;;;3.05;2.05;;;10.30;77.50;;;;;;1872657;75;21026;-45
2022/01/05 09:32:57;;;;;;;1.72;1.37;;;10.30;77.90;;;;;;1872677;75;21029;-46
2022/01/05 09:35:27;;;;;;;3.47;1.55;;;10.30;77.40;;;;;;1872902;76;21064;-45
2022/01/05 09:43:21;;;;;;;3.50;1.95;;;10.40;76.60;;;;;;1872766;75;21053;-44
2022/01/05 09:45:56;;;;;;;2.20;1.40;;;10.40;76.40;;;;;;1872838;75;21105;-46
2022/01/05 09:48:43;;;;;;;3.87;1.57;;;10.40;75.50;;;;;;1871438;75;21061;-45
2022/01/05 09:51:16;;;;;;;3.95;1.85;;;10.50;75.00;;;;;;1872827;75;21070;-46
2022/01/05 09:53:46;;;;;;;2.95;1.98;;;10.50;75.30;;;;;;1872600;75;21005;-45
2022/01/05 09:56:15;;;;;;;2.35;1.22;;;10.50;75.30;;;;;;1872819;75;21069;-48
2022/01/05 09:58:45;;;;;;;2.27;1.47;;;10.60;75.40;;;;;;1872640;75;21103;-46
2022/01/05 10:01:14;;;;;;;1.98;1.42;;;10.70;74.20;;;;;;1872677;77;21096;-45
2022/01/05 10:03:44;;;;;;;3.60;1.90;;;10.70;73.60;;;;;;1872725;75;21108;-44
2022/01/05 10:06:14;;;;;;;4.45;1.45;;;10.70;74.10;;;;;;1872708;75;21037;-45
2022/01/05 10:08:44;;;;;;;4.78;1.82;;;10.70;73.40;;;;;;1872667;75;21002;-45
2022/01/05 10:11:13;;;;;;;3.08;1.77;;;10.80;73.20;;;;;;1872761;75;21088;-45
2022/01/05 10:13:43;;;;;;;3.62;2.08;;;10.80;73.40;;;;;;1872704;75;21033;-44
2022/01/05 10:16:13;;;;;;;5.20;2.22;;;10.80;73.30;;;;;;1872758;77;21091;-44
2022/01/05 10:18:44;;;;;;;1.77;1.55;;;10.70;72.70;;;;;;1872629;75;21449;-45
2022/01/05 10:21:15;;;;;;;2.95;1.98;;;10.70;73.20;;;;;;1872679;75;21116;-47
2022/01/05 10:23:50;;;;;;;6.12;2.10;;;10.70;73.10;;;;;;1872639;75;21033;-47
2022/01/05 10:26:31;;;;;;;3.72;2.10;;;10.70;73.60;;;;;;1872796;75;21091;-45
2022/01/05 10:29:09;;;;;;;3.35;1.22;;;10.70;73.00;;;;;;1872686;75;21077;-45
2022/01/05 10:31:41;;;;;;;4.47;2.25;;;10.70;73.30;;;;;;1871985;76;21041;-44
2022/01/05 10:34:21;;;;;;;5.05;1.62;;;10.70;73.60;;;;;;1872556;75;21081;-47
2022/01/05 10:36:53;;;;;;;2.75;1.50;;;10.70;73.00;;;;;;1872685;75;21107;-45
2022/01/05 10:39:30;;;;;;;4.53;1.77;;;10.80;73.10;;;;;;1872822;76;21006;-44
2022/01/05 10:42:08;;;;;;;2.33;1.50;;;10.80;73.50;;;;;;1872780;76;21324;-45
2022/01/05 10:44:37;;;;;;;5.25;2.05;;;10.90;73.60;;;;;;1872641;75;21029;-45
2022/01/05 10:47:06;;;;;;;5.72;1.37;;;10.90;73.70;;;;;;1872698;75;21033;-46
2022/01/05 10:49:41;;;;;;;2.47;1.70;;;11.00;73.60;;;;;;1872899;75;21570;-45
2022/01/05 10:52:28;;;;;;;2.27;1.55;;;11.00;73.10;;;;;;1872961;77;21594;-47
2022/01/05 10:55:09;;;;;;;2.52;1.95;;;11.10;73.30;;;;;;1872701;75;21087;-45
2022/01/05 10:57:39;;;;;;;5.78;2.00;;;11.10;73.30;;;;;;1872298;76;21037;-46
2022/01/05 11:00:09;;;;;;;5.62;2.52;;;11.20;72.80;;;;;;1872823;76;21104;-47
2022/01/05 11:02:39;;;;;;;6.15;2.67;;;11.20;73.10;;;;;;1872632;76;21095;-46
2022/01/05 11:05:14;;;;;;;3.58;1.55;;;11.20;73.50;;;;;;1872676;75;21065;-45
2022/01/05 11:07:47;;;;;;;4.65;1.57;;;11.20;73.20;;;;;;1872870;76;21107;-45
2022/01/05 11:10:17;;;;;;;3.50;1.98;;;11.20;73.20;;;;;;1872648;75;21124;-46
2022/01/05 11:12:54;;;;;;;6.65;1.77;;;11.20;73.50;;;;;;1872734;76;21103;-46
2022/01/05 11:15:27;;;;;;;2.27;1.50;;;11.20;73.30;;;;;;1872730;75;20998;-46
2022/01/05 11:18:19;;;;;;;3.58;1.50;;;11.20;72.50;;;;;;1872654;75;21053;-48
2022/01/05 11:20:55;;;;;;;3.25;1.62;;;11.10;72.70;;;;;;1872814;75;21057;-45
2022/01/05 11:23:27;;;;;;;6.30;2.10;;;11.10;73.30;;;;;;1872609;75;21495;-45
2022/01/05 11:25:59;;;;;;;5.25;2.45;;;11.00;73.90;;;;;;1872795;75;21042;-47
2022/01/05 11:28:29;;;;;;;3.87;2.77;;;11.00;73.90;;;;;;1872663;77;21035;-44
2022/01/05 11:30:59;;;;;;;6.97;2.70;;;10.90;73.80;;;;;;1872727;75;21128;-45
2022/01/05 11:33:29;;;;;;;4.25;1.67;;;10.90;74.00;;;;;;1872695;77;21037;-46
2022/01/05 11:35:59;;;;;;;2.75;1.50;;;10.90;74.10;;;;;;1872778;76;21046;-44
2022/01/05 11:38:28;;;;;;;5.65;2.20;;;10.90;74.30;;;;;;1872672;76;21037;-45
2022/01/05 11:40:57;;;;;;;6.05;2.47;;;10.90;74.50;;;;;;1872724;75;21522;-44
2022/01/05 11:43:33;;;;;;;4.17;2.05;;;10.90;74.80;;;;;;1872736;77;21045;-45
2022/01/05 11:46:16;;;;;;;10.78;1.98;;;10.80;75.00;;;;;;1872792;75;21135;-46
2022/01/05 11:49:03;;;;;;;7.20;3.00;;;10.90;75.20;;;;;;1872645;75;21103;-45
2022/01/05 11:51:45;;;;;;;2.98;1.40;;;10.90;75.20;;;;;;1872720;76;21112;-46
2022/01/05 11:54:33;;;;;;;4.65;1.92;;;10.90;75.40;;;;;;1872662;75;21030;-46
2022/01/05 11:57:11;;;;;;;6.65;2.70;;;10.90;75.40;;;;;;1872577;75;21264;-47
2022/01/05 11:59:42;;;;;;;5.33;2.10;;;10.90;75.70;;;;;;1872629;75;21223;-49
2022/01/05 12:02:18;;;;;;;8.48;2.67;;;10.90;75.60;;;;;;1872534;75;21073;-44
2022/01/05 12:04:59;;;;;;;4.45;2.65;;;11.00;75.70;;;;;;1872742;75;21010;-46
2022/01/05 12:07:46;;;;;;;5.03;2.12;;;11.00;75.50;;;;;;1872697;75;20997;-45
2022/01/05 12:10:23;;;;;;;4.12;2.25;;;11.00;75.70;;;;;;1872686;76;21041;-48
2022/01/05 12:13:04;;;;;;;6.37;2.80;;;11.00;75.30;;;;;;1872657;75;21100;-48
2022/01/05 12:15:53;;;;;;;19.07;3.22;;;11.00;75.50;;;;;;1848496;77;21030;-45
2022/01/05 12:18:30;;;;;;;4.42;2.00;;;11.00;75.40;;;;;;1872673;76;21098;-45
2022/01/05 12:20:59;;;;;;;3.00;1.98;;;11.10;75.40;;;;;;1872757;75;20998;-46
2022/01/05 12:23:31;;;;;;;8.08;2.10;;;11.10;75.00;;;;;;1872758;75;21054;-44
2022/01/05 12:26:07;;;;;;;10.53;3.25;;;11.10;75.00;;;;;;1872713;77;21038;-48
2022/01/05 12:28:39;;;;;;;4.80;2.42;;;11.00;75.30;;;;;;1872733;75;21534;-46
2022/01/05 12:31:14;;;;;;;3.27;2.12;;;11.00;75.50;;;;;;1872805;77;21033;-45
2022/01/05 12:33:48;;;;;;;;;;;11.00;75.20;;;;;;1875619;76;21108;-45
2022/01/05 12:36:34;;;;;;;4.97;2.17;;;10.90;74.80;;;;;;1872798;75;20114;-45
2022/01/05 12:39:08;;;;;;;4.50;2.25;;;10.90;75.40;;;;;;1872742;75;21111;-48
2022/01/05 12:41:42;;;;;;;3.65;2.35;;;10.90;75.40;;;;;;1872715;75;21030;-47
2022/01/05 12:44:19;;;;;;;8.63;2.40;;;10.90;75.60;;;;;;1872942;76;21072;-47
2022/01/05 12:46:52;;;;;;;2.27;1.87;;;10.90;75.50;;;;;;1872842;75;21049;-48
2022/01/05 12:49:26;;;;;;;2.67;1.35;;;10.80;75.20;;;;;;1872833;75;21085;-46
2022/01/05 12:52:01;;;;;;;3.47;1.82;;;10.80;75.70;;;;;;1880951;76;21126;-47
2022/01/05 12:54:41;;;;;;;2.95;2.08;;;10.80;75.60;;;;;;1891248;75;21091;-47
2022/01/05 12:57:09;;;;;;;4.85;2.15;;;10.80;75.90;;;;;;1891013;75;21115;-45
2022/01/05 12:59:42;;;;;;;3.30;2.08;;;10.80;76.00;;;;;;1891572;75;21097;-45
2022/01/05 13:02:21;;;;;;;5.60;2.45;;;10.80;76.10;;;;;;1891735;76;21138;-49
2022/01/05 13:04:49;;;;;;;4.83;2.50;;;10.70;76.20;;;;;;1891396;75;21201;-48
2022/01/05 13:07:20;;;;;;;6.80;2.25;;;10.70;76.30;;;;;;1891821;76;21538;-46
2022/01/05 13:10:02;;;;;;;9.95;2.70;;;10.70;76.20;;;;;;1891658;75;21027;-45
2022/01/05 13:12:31;;;;;;;4.53;2.67;;;10.70;76.60;;;;;;1890757;75;21028;-47
2022/01/05 13:15:11;;;;;;;5.97;2.08;;;10.70;76.70;;;;;;1891630;76;21098;-46
2022/01/05 13:17:42;;;;;;;6.95;2.70;;;10.70;76.60;;;;;;1890918;75;21032;-45
2022/01/05 13:20:14;;;;;;;;;;;10.70;76.70;;;;;;1894499;76;21125;-44